Time;durP1;ratioP1;P1;durP2;ratioP2;P2;SDS_P1;SDS_P2;PMS_P1;PMS_P2;Temp;Humidity;BMP_temperature;BMP_pressure;BME280_temperature;BME280_humidity;BME280_pressure;Samples;Min_cycle;Max_cycle;Signal;HPM_P1;HPM_P2
2022/04/30 00:01:08;;;;;;;8.25;4.68;;;6.20;99.90;;;;;;5049623;28;20051;-63
2022/04/30 00:03:34;;;;;;;6.15;4.85;;;6.20;99.90;;;;;;5053154;28;20053;-65
2022/04/30 00:05:59;;;;;;;6.30;4.30;;;6.20;99.90;;;;;;5053385;28;20055;-64
2022/04/30 00:08:25;;;;;;;4.25;3.78;;;6.20;99.90;;;;;;5056578;28;20041;-63
2022/04/30 00:10:53;;;;;;;8.85;4.35;;;6.20;99.90;;;;;;5052818;28;20513;-64
2022/04/30 00:13:19;;;;;;;9.82;4.00;;;6.20;99.90;;;;;;5050497;28;20087;-62
2022/04/30 00:15:44;;;;;;;7.25;4.05;;;6.20;99.90;;;;;;5056582;28;20505;-64
2022/04/30 00:18:10;;;;;;;10.60;4.20;;;6.20;99.90;;;;;;5049258;28;20045;-65
2022/04/30 00:20:36;;;;;;;6.45;4.53;;;6.10;99.90;;;;;;5050713;28;20603;-64
2022/04/30 00:23:06;;;;;;;8.38;4.43;;;6.20;99.90;;;;;;5057250;28;20071;-65
2022/04/30 00:25:31;;;;;;;6.00;4.45;;;6.10;99.90;;;;;;5058892;28;20578;-63
2022/04/30 00:27:57;;;;;;;5.55;4.55;;;6.20;99.90;;;;;;5048423;28;20122;-63
2022/04/30 00:30:23;;;;;;;7.90;4.22;;;6.10;99.90;;;;;;5049339;28;20253;-63
2022/04/30 00:32:49;;;;;;;6.00;4.32;;;6.10;99.90;;;;;;5051958;28;20044;-64
2022/04/30 00:35:15;;;;;;;5.78;4.10;;;6.10;99.90;;;;;;5051549;28;20127;-63
2022/04/30 00:37:41;;;;;;;5.85;4.25;;;6.10;99.90;;;;;;5051484;28;20045;-65
2022/04/30 00:40:08;;;;;;;5.97;3.88;;;6.10;99.90;;;;;;5052961;28;20045;-64
2022/04/30 00:42:34;;;;;;;5.57;4.53;;;6.10;99.90;;;;;;5053739;28;20076;-64
2022/04/30 00:44:59;;;;;;;4.57;4.10;;;6.10;99.90;;;;;;5052738;28;20076;-66
2022/04/30 00:47:26;;;;;;;6.32;4.20;;;6.10;99.90;;;;;;5050957;28;20051;-63
2022/04/30 00:49:52;;;;;;;8.48;4.38;;;6.10;99.90;;;;;;5056153;28;20059;-63
2022/04/30 00:52:17;;;;;;;6.47;4.28;;;6.10;99.90;;;;;;5049641;28;20522;-63
2022/04/30 00:54:49;;;;;;;5.15;4.20;;;6.10;99.90;;;;;;5050742;28;20032;-65
2022/04/30 00:57:18;;;;;;;4.93;4.40;;;6.10;99.90;;;;;;5053835;28;20044;-64
2022/04/30 00:59:45;;;;;;;4.70;4.30;;;6.00;99.90;;;;;;5050116;28;20099;-65
2022/04/30 01:02:11;;;;;;;6.97;4.22;;;6.00;99.90;;;;;;5049821;28;20119;-63
2022/04/30 01:04:37;;;;;;;6.13;4.32;;;6.00;99.90;;;;;;5053826;28;20127;-63
2022/04/30 01:07:06;;;;;;;5.45;4.22;;;6.00;99.90;;;;;;5049330;28;20094;-63
2022/04/30 01:09:35;;;;;;;7.22;4.97;;;6.00;99.90;;;;;;5047993;28;20062;-63
2022/04/30 01:12:05;;;;;;;11.65;5.22;;;6.00;99.90;;;;;;5051267;28;20056;-63
2022/04/30 01:14:31;;;;;;;8.15;4.97;;;6.00;99.90;;;;;;5050693;28;20113;-63
2022/04/30 01:16:59;;;;;;;4.63;3.90;;;6.10;99.90;;;;;;5050871;28;20041;-63
2022/04/30 01:19:27;;;;;;;7.13;4.72;;;6.10;99.90;;;;;;5050251;28;20095;-62
2022/04/30 01:21:58;;;;;;;6.68;4.18;;;6.00;99.90;;;;;;5052734;28;20049;-64
2022/04/30 01:24:25;;;;;;;8.60;4.55;;;6.10;99.90;;;;;;5056777;28;20556;-62
2022/04/30 01:26:52;;;;;;;5.85;4.28;;;6.00;99.90;;;;;;5051607;28;20045;-63
2022/04/30 01:29:23;;;;;;;9.05;5.20;;;6.00;99.90;;;;;;5052172;28;20048;-62
2022/04/30 01:37:25;;;;;;;5.50;4.40;;;5.90;99.90;;;;;;5050959;28;20040;-64
2022/04/30 01:40:03;;;;;;;5.13;4.07;;;5.90;99.90;;;;;;5052288;28;20049;-63
2022/04/30 01:42:32;;;;;;;7.20;4.93;;;5.90;99.90;;;;;;5053092;28;20147;-63
2022/04/30 01:44:58;;;;;;;8.02;4.53;;;6.00;99.90;;;;;;5053069;28;20045;-65
2022/04/30 01:47:25;;;;;;;7.35;4.30;;;5.90;99.90;;;;;;5055249;28;20073;-64
2022/04/30 01:49:51;;;;;;;6.50;4.22;;;5.90;99.90;;;;;;5048392;28;20060;-63
2022/04/30 01:52:17;;;;;;;6.03;3.83;;;5.80;99.90;;;;;;5053049;28;20491;-63
2022/04/30 01:54:43;;;;;;;11.35;4.82;;;5.80;99.90;;;;;;5049447;28;20107;-62
2022/04/30 01:57:09;;;;;;;6.55;4.55;;;5.80;99.90;;;;;;5050835;28;20430;-63
2022/04/30 01:59:35;;;;;;;5.90;4.38;;;5.70;99.90;;;;;;5051460;28;20105;-63
2022/04/30 02:02:02;;;;;;;6.00;4.65;;;5.70;99.90;;;;;;5051111;28;20421;-63
2022/04/30 02:04:30;;;;;;;7.40;4.78;;;5.70;99.90;;;;;;5054039;28;20057;-63
2022/04/30 02:06:59;;;;;;;7.15;4.35;;;5.60;99.90;;;;;;5054414;28;20095;-64
2022/04/30 02:09:30;;;;;;;4.95;4.32;;;5.60;99.90;;;;;;5054666;28;20116;-63
2022/04/30 02:12:00;;;;;;;6.57;4.70;;;5.60;99.90;;;;;;5058210;28;20048;-64
2022/04/30 02:14:31;;;;;;;6.35;4.60;;;5.50;99.90;;;;;;5058139;28;20044;-62
2022/04/30 02:17:01;;;;;;;4.93;4.43;;;7.00;99.90;;;;;;5053379;28;20398;-63
2022/04/30 02:20:18;;;;;;;6.20;4.38;;;5.50;99.90;;;;;;5051201;28;20132;-64
2022/04/30 02:22:18;;;;;;;4.95;3.85;;;5.50;99.90;;;;;;5053204;28;20088;-63
2022/04/30 02:24:45;;;;;;;7.43;4.35;;;5.40;99.90;;;;;;5057237;28;20041;-63
2022/04/30 02:27:12;;;;;;;4.95;4.45;;;5.40;99.90;;;;;;5053722;28;20125;-63
2022/04/30 02:29:38;;;;;;;6.15;3.97;;;5.40;99.90;;;;;;5056151;28;20068;-65
2022/04/30 02:32:04;;;;;;;7.95;4.72;;;5.40;99.90;;;;;;5050046;28;20084;-63
2022/04/30 02:34:29;;;;;;;7.57;4.10;;;5.40;99.90;;;;;;5054617;28;20076;-63
2022/04/30 02:36:55;;;;;;;5.05;4.32;;;5.40;99.90;;;;;;5056359;28;20493;-63
2022/04/30 02:39:20;;;;;;;6.70;4.57;;;5.40;99.90;;;;;;5051140;28;20076;-64
2022/04/30 02:41:47;;;;;;;6.60;4.63;;;5.40;99.90;;;;;;5061320;28;20465;-63
2022/04/30 02:44:13;;;;;;;6.55;4.20;;;5.40;99.90;;;;;;5053739;28;20044;-63
2022/04/30 02:46:39;;;;;;;4.95;4.00;;;5.40;99.90;;;;;;5054978;28;20040;-63
2022/04/30 02:49:04;;;;;;;5.05;4.50;;;5.30;99.90;;;;;;5054506;28;20049;-63
2022/04/30 02:51:30;;;;;;;5.95;4.43;;;5.40;99.90;;;;;;5051418;28;20052;-64
2022/04/30 02:53:55;;;;;;;5.13;4.30;;;5.40;99.90;;;;;;5052174;28;20550;-63
2022/04/30 02:56:21;;;;;;;5.25;4.40;;;5.40;99.90;;;;;;5050210;28;20376;-64
2022/04/30 03:01:31;;;;;;;6.18;4.30;;;5.40;99.90;;;;;;5051119;28;20045;-64
2022/04/30 03:03:57;;;;;;;4.55;4.15;;;5.40;99.90;;;;;;5052939;28;20120;-64
2022/04/30 03:06:24;;;;;;;7.20;4.65;;;5.40;99.90;;;;;;5055387;28;20445;-63
2022/04/30 03:08:50;;;;;;;6.93;4.55;;;5.40;99.90;;;;;;5053832;28;20135;-65
2022/04/30 03:11:19;;;;;;;4.68;4.10;;;5.40;99.90;;;;;;5053598;28;20123;-64
2022/04/30 03:13:45;;;;;;;8.73;4.30;;;5.40;99.90;;;;;;5054783;28;20037;-63
2022/04/30 03:21:42;;;;;;;7.43;4.05;;;5.40;99.90;;;;;;5054664;28;20040;-63
2022/04/30 03:24:08;;;;;;;6.35;4.93;;;5.40;99.90;;;;;;5056411;28;20593;-64
2022/04/30 03:26:34;;;;;;;8.63;4.82;;;5.40;99.90;;;;;;5057934;28;20059;-64
2022/04/30 03:29:00;;;;;;;5.50;4.63;;;5.40;99.90;;;;;;5051898;28;20040;-63
2022/04/30 03:31:28;;;;;;;7.55;4.75;;;5.50;99.90;;;;;;5054849;28;20049;-63
2022/04/30 03:33:54;;;;;;;6.95;4.80;;;5.50;99.90;;;;;;5055456;28;20116;-64
2022/04/30 03:36:19;;;;;;;8.63;5.07;;;5.50;99.90;;;;;;5052280;28;20464;-63
2022/04/30 03:38:45;;;;;;;8.82;5.55;;;5.50;99.90;;;;;;5055578;28;20057;-63
2022/04/30 03:41:11;;;;;;;7.75;5.45;;;5.50;99.90;;;;;;5051215;28;20052;-63
2022/04/30 03:43:36;;;;;;;6.38;4.60;;;5.50;99.90;;;;;;5053922;28;20036;-63
2022/04/30 03:46:02;;;;;;;6.68;5.50;;;5.50;99.90;;;;;;5056715;28;20517;-63
2022/04/30 03:48:28;;;;;;;8.70;4.82;;;5.50;99.90;;;;;;5052435;28;20402;-65
2022/04/30 03:50:56;;;;;;;7.85;5.03;;;5.50;99.90;;;;;;5054439;28;20052;-64
2022/04/30 03:53:22;;;;;;;5.75;5.07;;;5.50;99.90;;;;;;5055491;28;20045;-63
2022/04/30 03:55:48;;;;;;;7.72;5.18;;;5.60;99.90;;;;;;5061392;28;20040;-64
2022/04/30 03:58:13;;;;;;;7.13;4.57;;;5.60;99.90;;;;;;5056171;28;20044;-63
2022/04/30 04:00:39;;;;;;;6.53;5.32;;;5.60;99.90;;;;;;5052983;28;20037;-63
2022/04/30 04:03:05;;;;;;;7.03;5.53;;;5.60;99.90;;;;;;5052366;28;20072;-63
2022/04/30 04:05:31;;;;;;;6.07;4.60;;;5.60;99.90;;;;;;5052809;28;20084;-63
2022/04/30 04:07:58;;;;;;;6.88;4.25;;;5.60;99.90;;;;;;5052862;28;20055;-64
2022/04/30 04:10:23;;;;;;;5.70;4.72;;;5.60;99.90;;;;;;5058365;28;20143;-64
2022/04/30 04:12:50;;;;;;;6.28;4.53;;;5.50;99.90;;;;;;5063812;28;20116;-63
2022/04/30 04:18:00;;;;;;;5.55;4.32;;;5.60;99.90;;;;;;5054263;28;20045;-63
2022/04/30 04:20:25;;;;;;;5.53;4.95;;;5.50;99.90;;;;;;5056662;28;20071;-63
2022/04/30 04:22:52;;;;;;;7.22;5.00;;;5.50;99.90;;;;;;5052397;28;20471;-63
2022/04/30 04:28:02;;;;;;;8.27;4.50;;;5.60;99.90;;;;;;5051697;28;20065;-63
2022/04/30 04:30:29;;;;;;;5.93;5.15;;;5.60;99.90;;;;;;5050315;28;20084;-63
2022/04/30 04:32:56;;;;;;;7.65;4.47;;;5.60;99.90;;;;;;5049025;28;20041;-63
2022/04/30 04:35:22;;;;;;;5.47;4.90;;;5.60;99.90;;;;;;5054067;28;20421;-64
2022/04/30 04:37:48;;;;;;;5.63;4.75;;;5.60;99.90;;;;;;5051295;28;20037;-63
2022/04/30 04:40:15;;;;;;;7.03;4.82;;;5.60;99.90;;;;;;5051981;28;20125;-64
2022/04/30 04:42:42;;;;;;;6.35;4.75;;;5.60;99.90;;;;;;5048649;28;20494;-65
2022/04/30 04:45:08;;;;;;;7.00;5.28;;;5.60;99.90;;;;;;5050221;28;20048;-64
2022/04/30 04:47:35;;;;;;;4.75;4.30;;;5.70;99.90;;;;;;5050318;28;20665;-64
2022/04/30 04:50:03;;;;;;;7.10;5.63;;;6.50;99.90;;;;;;5052521;28;20138;-63
2022/04/30 04:52:29;;;;;;;5.93;5.40;;;5.80;99.90;;;;;;5054348;28;20037;-63
2022/04/30 04:54:55;;;;;;;6.45;5.32;;;5.80;99.90;;;;;;5053342;28;20043;-64
2022/04/30 04:57:20;;;;;;;7.53;5.25;;;5.90;99.90;;;;;;5050456;28;20087;-64
2022/04/30 04:59:46;;;;;;;7.22;5.82;;;5.90;99.90;;;;;;5056006;28;20043;-62
2022/04/30 05:02:11;;;;;;;6.72;5.90;;;5.90;99.90;;;;;;5050566;28;20141;-63
2022/04/30 05:04:37;;;;;;;5.97;5.05;;;6.00;99.90;;;;;;5055037;28;20048;-63
2022/04/30 05:07:03;;;;;;;6.70;5.45;;;6.00;99.90;;;;;;5048591;28;20041;-63
2022/04/30 05:09:31;;;;;;;6.50;5.60;;;6.10;99.90;;;;;;5055926;28;20528;-63
2022/04/30 05:12:01;;;;;;;5.90;4.80;;;6.20;99.90;;;;;;5054238;28;20665;-63
2022/04/30 05:14:32;;;;;;;10.85;6.45;;;6.20;99.90;;;;;;5057980;28;20738;-63
2022/04/30 05:16:59;;;;;;;9.07;5.22;;;6.30;99.90;;;;;;5055524;28;20116;-63
2022/04/30 05:19:25;;;;;;;5.97;5.32;;;6.40;99.90;;;;;;5053708;28;20094;-63
2022/04/30 05:21:50;;;;;;;9.40;6.40;;;6.30;99.90;;;;;;5051878;28;20450;-63
2022/04/30 05:24:16;;;;;;;9.88;6.07;;;6.40;99.90;;;;;;5052695;28;20063;-63
2022/04/30 05:26:41;;;;;;;7.50;6.50;;;6.50;99.90;;;;;;5053410;28;20040;-65
2022/04/30 05:29:07;;;;;;;23.77;6.32;;;6.60;99.90;;;;;;5050132;28;20589;-63
2022/04/30 05:31:32;;;;;;;8.70;6.15;;;6.60;99.90;;;;;;5052301;28;20083;-63
2022/04/30 05:33:59;;;;;;;7.78;6.32;;;6.70;99.90;;;;;;5053822;28;20072;-63
2022/04/30 05:36:24;;;;;;;8.80;5.55;;;6.70;99.90;;;;;;5056779;28;20584;-63
2022/04/30 05:38:51;;;;;;;11.50;6.68;;;6.80;99.90;;;;;;5057860;28;20043;-63
2022/04/30 05:41:17;;;;;;;8.77;6.78;;;6.90;99.90;;;;;;5054808;28;20064;-63
2022/04/30 05:43:42;;;;;;;11.93;7.47;;;6.90;99.90;;;;;;5063258;28;20047;-63
2022/04/30 05:46:08;;;;;;;8.40;6.50;;;7.00;99.90;;;;;;5054061;28;20422;-62
2022/04/30 05:48:33;;;;;;;8.40;5.47;;;7.00;99.90;;;;;;5057651;28;20045;-66
2022/04/30 05:51:01;;;;;;;8.82;6.72;;;7.10;99.90;;;;;;5056049;28;20052;-63
2022/04/30 05:53:26;;;;;;;7.25;6.50;;;7.10;99.90;;;;;;5050437;28;20116;-63
2022/04/30 05:55:52;;;;;;;12.93;7.35;;;7.20;99.90;;;;;;5057132;28;20716;-63
2022/04/30 05:58:18;;;;;;;8.07;6.57;;;7.30;99.90;;;;;;5054897;28;20449;-63
2022/04/30 06:00:44;;;;;;;10.05;6.20;;;7.30;99.90;;;;;;5057631;28;20041;-63
2022/04/30 06:03:10;;;;;;;9.25;6.53;;;7.40;99.90;;;;;;5054096;28;20048;-63
2022/04/30 06:05:37;;;;;;;9.00;6.50;;;7.40;99.90;;;;;;5054574;28;20510;-63
2022/04/30 06:08:04;;;;;;;8.85;5.30;;;7.50;99.90;;;;;;5053271;28;20046;-62
2022/04/30 06:10:29;;;;;;;7.07;5.22;;;7.50;99.90;;;;;;5056198;28;20040;-63
2022/04/30 06:12:55;;;;;;;11.25;6.10;;;7.50;99.90;;;;;;5057588;28;20467;-64
2022/04/30 06:15:20;;;;;;;10.52;6.38;;;7.50;99.90;;;;;;5055946;28;20049;-64
2022/04/30 06:17:46;;;;;;;8.77;5.72;;;7.50;99.90;;;;;;5055260;28;20037;-62
2022/04/30 06:20:12;;;;;;;7.35;6.15;;;7.60;99.90;;;;;;5053999;28;20147;-63
2022/04/30 06:22:37;;;;;;;7.03;5.35;;;7.60;99.90;;;;;;5052173;28;20124;-63
2022/04/30 06:25:04;;;;;;;7.65;5.38;;;7.60;99.90;;;;;;5052964;28;20064;-65
2022/04/30 06:27:30;;;;;;;7.10;5.82;;;7.70;99.90;;;;;;5058560;28;20040;-64
2022/04/30 06:29:55;;;;;;;9.60;5.85;;;7.70;99.90;;;;;;5053642;28;20090;-65
2022/04/30 06:32:21;;;;;;;9.82;6.47;;;7.80;99.90;;;;;;5053063;28;20120;-64
2022/04/30 06:34:46;;;;;;;8.15;5.95;;;7.80;99.90;;;;;;5058812;28;20041;-64
2022/04/30 06:37:12;;;;;;;8.43;5.90;;;7.90;99.90;;;;;;5060394;28;20643;-63
2022/04/30 06:39:37;;;;;;;8.63;5.82;;;8.00;99.90;;;;;;5059542;28;20051;-63
2022/04/30 06:42:04;;;;;;;7.03;6.00;;;8.00;99.90;;;;;;5057247;28;20050;-65
2022/04/30 06:44:29;;;;;;;12.02;6.65;;;8.00;99.90;;;;;;5059175;28;20048;-64
2022/04/30 06:46:55;;;;;;;6.22;5.63;;;8.10;99.90;;;;;;5051316;28;20098;-63
2022/04/30 06:49:23;;;;;;;7.80;6.53;;;8.10;99.90;;;;;;5060345;28;20406;-63
2022/04/30 06:51:49;;;;;;;14.13;6.22;;;8.20;99.90;;;;;;5052591;28;20087;-63
2022/04/30 06:57:08;;;;;;;16.65;6.68;;;8.20;99.90;;;;;;5053825;28;20075;-66
2022/04/30 06:59:40;;;;;;;8.65;6.97;;;8.20;99.90;;;;;;5060953;28;20464;-65
2022/04/30 07:02:07;;;;;;;;;;;8.30;99.90;;;;;;5057798;28;20048;-65
2022/04/30 07:04:33;;;;;;;6.43;5.20;;;8.30;99.90;;;;;;5052878;28;19925;-64
2022/04/30 07:06:59;;;;;;;9.07;6.15;;;8.30;99.90;;;;;;5055028;28;20449;-63
2022/04/30 07:09:26;;;;;;;10.55;5.53;;;8.40;99.90;;;;;;5051933;28;20442;-64
2022/04/30 07:11:53;;;;;;;7.70;5.70;;;8.40;99.90;;;;;;5054475;28;20048;-63
2022/04/30 07:14:18;;;;;;;9.50;6.00;;;8.50;99.90;;;;;;5054587;28;20215;-64
2022/04/30 07:16:44;;;;;;;8.40;6.00;;;8.50;99.90;;;;;;5056088;28;20456;-63
2022/04/30 07:19:10;;;;;;;7.32;5.72;;;8.60;99.90;;;;;;5056034;28;20036;-63
2022/04/30 07:21:35;;;;;;;7.60;6.07;;;8.70;99.90;;;;;;5054147;28;20516;-64
2022/04/30 07:24:01;;;;;;;6.80;6.18;;;8.70;99.90;;;;;;5061896;28;20048;-63
2022/04/30 07:26:27;;;;;;;6.28;5.18;;;8.80;99.90;;;;;;5066411;28;20471;-63
2022/04/30 07:28:52;;;;;;;9.98;5.47;;;8.80;99.90;;;;;;5059022;28;20399;-63
2022/04/30 07:31:19;;;;;;;7.93;4.85;;;8.90;99.90;;;;;;5046968;28;20299;-61
2022/04/30 07:33:45;;;;;;;6.63;4.78;;;9.00;99.90;;;;;;5047985;28;20033;-61
2022/04/30 07:36:10;;;;;;;7.03;5.07;;;9.00;99.90;;;;;;5046763;28;20069;-61
2022/04/30 07:38:36;;;;;;;7.30;4.85;;;9.10;99.90;;;;;;5063101;28;20131;-62
2022/04/30 07:41:02;;;;;;;9.55;4.47;;;9.20;99.90;;;;;;5065012;28;20411;-61
2022/04/30 07:43:28;;;;;;;4.70;4.10;;;9.20;99.90;;;;;;5066509;28;20037;-62
2022/04/30 07:45:54;;;;;;;9.57;4.72;;;9.30;99.90;;;;;;5063802;28;20446;-61
2022/04/30 07:48:20;;;;;;;4.53;4.13;;;9.40;99.90;;;;;;5045727;28;20056;-61
2022/04/30 07:50:45;;;;;;;6.95;4.15;;;9.50;99.90;;;;;;5047033;28;20495;-61
2022/04/30 07:53:15;;;;;;;5.03;4.22;;;9.50;99.90;;;;;;5046179;28;20048;-61
2022/04/30 07:55:42;;;;;;;4.57;4.10;;;9.60;99.90;;;;;;5055615;28;20055;-62
2022/04/30 07:58:08;;;;;;;7.13;4.43;;;9.60;99.90;;;;;;5056284;28;20040;-62
2022/04/30 08:00:34;;;;;;;4.45;4.05;;;9.70;99.90;;;;;;5054032;28;20048;-62
2022/04/30 08:03:00;;;;;;;7.40;4.13;;;9.80;99.90;;;;;;5051900;28;20033;-62
2022/04/30 08:05:26;;;;;;;6.82;4.60;;;9.80;99.90;;;;;;5046356;28;20084;-62
2022/04/30 08:07:54;;;;;;;5.60;4.90;;;9.90;99.90;;;;;;5045726;28;20037;-62
2022/04/30 08:10:20;;;;;;;5.28;3.95;;;10.00;99.90;;;;;;5066534;28;20367;-62
2022/04/30 08:12:46;;;;;;;3.53;3.20;;;10.00;99.90;;;;;;5066668;28;20491;-62
2022/04/30 08:15:12;;;;;;;4.95;3.90;;;10.10;99.90;;;;;;5050828;28;20095;-62
2022/04/30 08:17:41;;;;;;;4.97;4.20;;;10.20;99.90;;;;;;5064472;28;20044;-62
2022/04/30 08:20:07;;;;;;;4.72;3.95;;;10.20;99.90;;;;;;5051201;28;20756;-62
2022/04/30 08:22:33;;;;;;;6.38;3.83;;;10.20;99.90;;;;;;5065688;28;20056;-61
2022/04/30 08:25:02;;;;;;;4.53;3.72;;;10.20;99.90;;;;;;5066466;28;20044;-62
2022/04/30 08:27:29;;;;;;;6.10;3.58;;;10.30;99.90;;;;;;5065694;28;20044;-62
2022/04/30 08:29:54;;;;;;;8.52;3.83;;;10.30;99.90;;;;;;5051679;28;20387;-62
2022/04/30 08:32:26;;;;;;;4.20;3.80;;;10.40;99.90;;;;;;5059099;28;20099;-62
2022/04/30 08:34:52;;;;;;;7.32;3.65;;;10.50;99.90;;;;;;5061884;28;20047;-62
2022/04/30 08:37:18;;;;;;;3.97;3.58;;;10.70;99.90;;;;;;5063661;28;20439;-61
2022/04/30 08:39:45;;;;;;;12.52;3.45;;;10.80;99.90;;;;;;5059179;28;20055;-67
2022/04/30 08:42:13;;;;;;;4.38;3.35;;;10.90;99.90;;;;;;5052260;28;20433;-64
2022/04/30 08:44:39;;;;;;;6.65;3.90;;;11.10;99.90;;;;;;5071728;28;20490;-65
2022/04/30 08:47:06;;;;;;;7.25;4.00;;;11.20;99.90;;;;;;5065138;28;20040;-63
2022/04/30 08:49:32;;;;;;;8.30;4.00;;;11.30;99.90;;;;;;5058286;28;20425;-63
2022/04/30 08:51:59;;;;;;;5.40;4.10;;;11.30;99.90;;;;;;5050555;28;20102;-63
2022/04/30 08:54:25;;;;;;;4.20;3.80;;;11.50;99.90;;;;;;5058043;28;20033;-63
2022/04/30 08:56:56;;;;;;;4.05;3.70;;;11.60;99.90;;;;;;5059622;28;20048;-63
2022/04/30 08:59:22;;;;;;;6.07;3.80;;;11.60;99.90;;;;;;5058138;28;20098;-63
2022/04/30 09:01:50;;;;;;;3.53;2.92;;;11.70;99.90;;;;;;5052900;28;20267;-63
2022/04/30 09:04:16;;;;;;;5.90;3.90;;;11.70;99.90;;;;;;5052286;28;20053;-64
2022/04/30 09:06:58;;;;;;;4.30;3.90;;;11.70;99.90;;;;;;5047734;28;20127;-64
2022/04/30 09:09:27;;;;;;;3.83;3.45;;;11.80;99.90;;;;;;5066103;28;20045;-64
2022/04/30 09:11:56;;;;;;;7.88;4.10;;;11.90;99.90;;;;;;5064604;28;20417;-64
2022/04/30 09:14:28;;;;;;;6.25;3.30;;;12.00;99.90;;;;;;5064892;28;20049;-64
2022/04/30 09:17:05;;;;;;;5.68;3.63;;;12.00;99.90;;;;;;5066415;28;20106;-64
2022/04/30 09:19:49;;;;;;;3.83;3.25;;;12.00;99.90;;;;;;5065435;28;20098;-64
2022/04/30 09:22:16;;;;;;;6.35;3.40;;;12.00;99.90;;;;;;5064515;28;20144;-64
2022/04/30 09:24:49;;;;;;;6.43;3.83;;;12.00;99.90;;;;;;5065257;28;20044;-64
2022/04/30 09:27:18;;;;;;;4.82;3.45;;;12.00;99.90;;;;;;5065644;28;20169;-65
2022/04/30 09:29:44;;;;;;;7.45;4.00;;;12.00;99.90;;;;;;5065420;28;20530;-65
2022/04/30 09:32:21;;;;;;;4.53;3.53;;;11.90;99.90;;;;;;5064790;28;20383;-65
2022/04/30 09:37:42;;;;;;;4.57;3.95;;;12.00;99.90;;;;;;5066860;28;20052;-63
2022/04/30 09:40:13;;;;;;;6.47;3.70;;;11.90;99.90;;;;;;5065222;28;20055;-63
2022/04/30 09:42:41;;;;;;;5.33;3.77;;;11.90;99.90;;;;;;5066218;28;20045;-62
2022/04/30 09:45:07;;;;;;;4.22;3.83;;;12.00;99.90;;;;;;5065358;28;20538;-63
2022/04/30 09:47:34;;;;;;;4.82;3.88;;;12.00;99.90;;;;;;5064631;28;20076;-63
2022/04/30 09:55:34;;;;;;;6.30;4.53;;;11.90;99.90;;;;;;5065682;28;20048;-63
2022/04/30 09:58:04;;;;;;;4.53;3.67;;;11.90;99.90;;;;;;5065210;28;20447;-63
2022/04/30 10:00:33;;;;;;;5.13;4.10;;;11.80;99.90;;;;;;5065359;28;20169;-63
2022/04/30 10:03:03;;;;;;;7.82;4.60;;;11.70;99.90;;;;;;5063732;28;20055;-63
2022/04/30 10:05:35;;;;;;;8.02;4.00;;;11.60;99.90;;;;;;5065886;28;20048;-63
2022/04/30 10:08:02;;;;;;;8.45;4.10;;;11.70;99.90;;;;;;5064490;28;20048;-63
2022/04/30 10:10:41;;;;;;;6.63;4.30;;;11.70;99.90;;;;;;5065270;28;20051;-63
2022/04/30 10:13:17;;;;;;;10.27;4.70;;;11.80;99.90;;;;;;5047176;28;20402;-63
2022/04/30 10:15:52;;;;;;;4.50;3.28;;;11.90;99.90;;;;;;5063305;28;20119;-64
2022/04/30 10:18:19;;;;;;;6.45;3.92;;;11.80;99.90;;;;;;5065461;28;20345;-64
2022/04/30 10:20:52;;;;;;;4.32;3.67;;;11.80;99.90;;;;;;5065304;28;20041;-64
2022/04/30 10:23:17;;;;;;;7.32;4.10;;;11.80;99.90;;;;;;5064973;28;20052;-64
2022/04/30 10:25:46;;;;;;;11.38;4.53;;;11.80;99.90;;;;;;5066679;28;20049;-63
2022/04/30 10:28:19;;;;;;;6.82;4.03;;;11.80;99.90;;;;;;5067736;28;20045;-63
2022/04/30 10:30:57;;;;;;;6.47;3.92;;;11.80;99.90;;;;;;5068584;28;20099;-63
2022/04/30 10:33:23;;;;;;;6.25;4.47;;;11.80;99.90;;;;;;5068322;28;20886;-63
2022/04/30 10:35:49;;;;;;;7.90;3.72;;;11.80;99.90;;;;;;5067906;28;20052;-63
2022/04/30 10:38:19;;;;;;;9.43;4.45;;;11.90;99.90;;;;;;5068349;28;20398;-64
2022/04/30 10:40:46;;;;;;;6.20;3.75;;;11.90;99.90;;;;;;5068396;28;20502;-64
2022/04/30 10:43:25;;;;;;;7.97;4.47;;;11.90;99.90;;;;;;5067631;28;20052;-64
2022/04/30 10:45:52;;;;;;;8.77;4.40;;;11.90;99.90;;;;;;5068390;28;20059;-64
2022/04/30 10:48:19;;;;;;;8.10;4.22;;;11.80;99.90;;;;;;5067865;28;20101;-63
2022/04/30 10:51:04;;;;;;;8.48;3.92;;;11.70;99.90;;;;;;5067338;28;20052;-64
2022/04/30 10:53:31;;;;;;;5.93;4.78;;;11.70;99.90;;;;;;5068761;28;20407;-63
2022/04/30 10:55:57;;;;;;;6.20;4.90;;;11.60;99.90;;;;;;5065156;28;20441;-64
2022/04/30 10:58:24;;;;;;;6.90;4.00;;;11.60;99.90;;;;;;5054452;28;20052;-64
2022/04/30 11:00:50;;;;;;;5.80;4.43;;;11.50;99.90;;;;;;5058716;28;20098;-64
2022/04/30 11:03:17;;;;;;;7.47;4.00;;;11.50;99.90;;;;;;5057676;28;20049;-64
2022/04/30 11:05:43;;;;;;;8.57;4.50;;;11.50;99.90;;;;;;5055512;28;20089;-63
2022/04/30 11:08:09;;;;;;;9.00;4.78;;;11.50;99.90;;;;;;5055066;28;20045;-63
2022/04/30 11:10:35;;;;;;;5.28;3.70;;;11.50;99.90;;;;;;5055775;28;20500;-63
2022/04/30 11:13:05;;;;;;;6.15;3.88;;;11.50;99.90;;;;;;5058221;28;20414;-63
2022/04/30 11:15:31;;;;;;;8.55;4.20;;;11.40;99.90;;;;;;5064607;28;20178;-63
2022/04/30 11:17:59;;;;;;;7.30;4.28;;;11.40;99.90;;;;;;5067133;28;20136;-63
2022/04/30 11:20:25;;;;;;;5.18;4.00;;;11.40;99.90;;;;;;5060218;28;20044;-63
2022/04/30 11:22:58;;;;;;;7.30;4.50;;;11.40;99.90;;;;;;5057495;28;20078;-63
2022/04/30 11:25:36;;;;;;;4.20;3.78;;;11.40;99.90;;;;;;5057899;28;20105;-63
2022/04/30 11:28:10;;;;;;;10.02;4.30;;;11.40;99.90;;;;;;5064200;28;20108;-64
2022/04/30 11:30:41;;;;;;;12.27;4.93;;;11.30;99.90;;;;;;5054005;28;20094;-64
2022/04/30 11:33:08;;;;;;;8.30;4.55;;;11.20;99.90;;;;;;5053243;28;20208;-64
2022/04/30 11:35:34;;;;;;;5.43;3.95;;;11.10;99.90;;;;;;5066895;28;20399;-64
2022/04/30 11:38:00;;;;;;;7.78;4.10;;;11.10;99.90;;;;;;5066620;28;20468;-64
2022/04/30 11:40:26;;;;;;;7.13;4.18;;;11.00;99.90;;;;;;5053460;28;20080;-63
2022/04/30 11:42:59;;;;;;;5.38;3.63;;;11.10;99.90;;;;;;5059861;28;20078;-63
2022/04/30 11:45:27;;;;;;;6.68;3.88;;;11.10;99.90;;;;;;5062792;28;20041;-64
2022/04/30 11:47:52;;;;;;;7.97;4.15;;;11.00;99.90;;;;;;5060154;28;20416;-63
2022/04/30 11:50:18;;;;;;;7.80;4.88;;;11.00;99.90;;;;;;5051391;28;20291;-63
2022/04/30 11:52:45;;;;;;;6.55;4.50;;;11.00;99.90;;;;;;5072138;28;20459;-63
2022/04/30 11:55:11;;;;;;;10.63;4.25;;;11.00;99.90;;;;;;5061364;28;20066;-63
2022/04/30 11:57:42;;;;;;;7.93;3.90;;;11.00;99.90;;;;;;5060188;28;20076;-64
2022/04/30 12:00:08;;;;;;;4.72;4.15;;;10.90;99.90;;;;;;5053356;28;20048;-63
2022/04/30 12:02:37;;;;;;;7.22;4.38;;;10.90;99.90;;;;;;5054925;28;20045;-64
2022/04/30 12:05:04;;;;;;;11.50;5.82;;;10.90;99.90;;;;;;5057671;28;20391;-63
2022/04/30 12:07:41;;;;;;;10.27;6.25;;;10.80;99.90;;;;;;5059177;28;20079;-63
2022/04/30 12:10:23;;;;;;;9.80;5.60;;;10.80;99.90;;;;;;5063724;28;20056;-63
2022/04/30 12:12:51;;;;;;;6.82;5.05;;;10.80;99.90;;;;;;5058591;28;20048;-63
2022/04/30 12:15:23;;;;;;;7.88;5.15;;;10.80;99.90;;;;;;5064912;28;20125;-63
2022/04/30 12:26:11;;;;;;;8.00;5.50;;;10.70;99.90;;;;;;5060173;28;20041;-64
2022/04/30 12:28:45;;;;;;;6.65;5.00;;;10.80;99.90;;;;;;5061199;28;20091;-64
2022/04/30 12:31:10;;;;;;;7.97;4.63;;;10.80;99.90;;;;;;5059736;28;20310;-64
2022/04/30 12:33:45;;;;;;;8.10;5.05;;;10.80;99.90;;;;;;5063198;28;20108;-64
2022/04/30 12:36:13;;;;;;;5.97;4.35;;;10.80;99.90;;;;;;5047716;28;20479;-64
2022/04/30 12:38:39;;;;;;;8.50;4.28;;;10.80;99.90;;;;;;5059288;28;20075;-63
2022/04/30 12:41:06;;;;;;;7.40;4.97;;;10.80;99.90;;;;;;5062519;28;20072;-63
2022/04/30 12:43:36;;;;;;;9.85;4.65;;;10.90;99.90;;;;;;5052780;28;20040;-62
2022/04/30 12:46:05;;;;;;;6.85;4.45;;;10.90;99.90;;;;;;5053277;28;20482;-62
2022/04/30 12:48:34;;;;;;;4.40;4.00;;;10.90;99.90;;;;;;5057395;28;20109;-62
2022/04/30 12:50:59;;;;;;;4.63;4.07;;;11.00;99.90;;;;;;5045690;28;20094;-63
2022/04/30 12:53:25;;;;;;;8.35;4.65;;;11.10;99.90;;;;;;5060849;28;20048;-62
2022/04/30 12:55:52;;;;;;;7.38;4.68;;;11.10;99.90;;;;;;5062794;28;20498;-62
2022/04/30 12:58:18;;;;;;;4.22;3.88;;;11.20;99.90;;;;;;5061164;28;20119;-62
2022/04/30 13:00:45;;;;;;;6.30;4.25;;;11.30;99.90;;;;;;5049873;28;20037;-62
2022/04/30 13:03:11;;;;;;;8.77;5.07;;;11.30;99.90;;;;;;5052249;28;20040;-63
2022/04/30 13:05:37;;;;;;;5.05;4.10;;;11.40;99.90;;;;;;5060208;28;20070;-62
2022/04/30 13:08:03;;;;;;;11.55;4.45;;;11.40;99.90;;;;;;5060616;28;20036;-63
2022/04/30 13:13:32;;;;;;;4.53;3.30;;;11.60;99.90;;;;;;5060849;28;20053;-63
2022/04/30 13:16:01;;;;;;;6.57;4.75;;;11.60;99.90;;;;;;5051766;28;20055;-62
2022/04/30 13:18:27;;;;;;;9.40;5.40;;;11.70;99.90;;;;;;5058877;28;20545;-62
2022/04/30 13:20:52;;;;;;;7.63;5.10;;;11.70;99.90;;;;;;5061996;28;20241;-62
2022/04/30 13:23:18;;;;;;;6.78;5.40;;;11.80;99.90;;;;;;5075067;28;20126;-62
2022/04/30 13:25:43;;;;;;;8.57;5.65;;;11.80;99.90;;;;;;5051381;28;20044;-62
2022/04/30 13:28:09;;;;;;;10.48;5.22;;;11.90;99.90;;;;;;5063836;28;20397;-63
2022/04/30 13:30:34;;;;;;;7.22;4.85;;;11.80;99.90;;;;;;5055886;28;20048;-63
2022/04/30 13:33:00;;;;;;;6.95;4.72;;;11.90;99.90;;;;;;5057371;28;20044;-62
2022/04/30 13:35:26;;;;;;;5.07;4.60;;;12.00;99.90;;;;;;5064043;28;20044;-62